Time;durP1;ratioP1;P1;durP2;ratioP2;P2;SDS_P1;SDS_P2;PMS_P1;PMS_P2;Temp;Humidity;BMP_temperature;BMP_pressure;BME280_temperature;BME280_humidity;BME280_pressure;Samples;Min_cycle;Max_cycle;Signal;HPM_P1;HPM_P2
2023/04/13 00:03:15;;;;;;;2.53;0.30;;;;;;;19.04;33.51;99369.50;16122380;19;130537;-42
2023/04/13 00:08:41;;;;;;;1.67;0.40;;;;;;;19.01;33.25;99377.56;16121721;19;130364;-42
2023/04/13 00:14:03;;;;;;;2.22;0.60;;;;;;;19.00;33.49;99384.22;16122098;19;130164;-45
2023/04/13 00:19:25;;;;;;;0.55;0.20;;;;;;;18.98;33.46;99378.94;16118946;19;131015;-41
2023/04/13 00:24:47;;;;;;;1.58;0.45;;;;;;;18.95;33.68;99376.78;16120993;19;130285;-42
2023/04/13 00:30:15;;;;;;;0.63;0.25;;;;;;;18.94;33.33;99375.13;16119187;19;129588;-46
2023/04/13 00:35:38;;;;;;;1.85;0.40;;;;;;;18.91;33.34;99370.13;16119172;19;129647;-44
2023/04/13 00:41:01;;;;;;;2.53;0.60;;;;;;;;;;16119371;19;129432;-42
2023/04/13 00:46:23;;;;;;;0.90;0.30;;;;;;;18.90;33.51;99390.66;16119525;19;131056;-42
2023/04/13 00:51:45;;;;;;;1.25;0.32;;;;;;;18.87;33.30;99386.50;16118854;19;129583;-42
2023/04/13 00:57:07;;;;;;;1.77;0.43;;;;;;;18.87;33.43;99382.91;16116070;19;131191;-43
2023/04/13 01:02:30;;;;;;;0.98;0.30;;;;;;;18.85;33.76;99385.97;16115168;19;130461;-43
2023/04/13 01:08:07;;;;;;;1.45;0.60;;;;;;;18.84;33.74;99381.53;16118190;19;130816;-42
2023/04/13 01:13:55;;;;;;;1.42;0.50;;;;;;;18.83;33.57;99390.97;16116179;19;130158;-41
2023/04/13 01:19:39;;;;;;;1.63;0.35;;;;;;;18.82;33.32;99388.47;16116020;19;130161;-43
2023/04/13 01:25:21;;;;;;;0.73;0.28;;;;;;;18.81;33.41;99395.13;16118953;19;131900;-42
2023/04/13 01:30:45;;;;;;;2.10;0.50;;;;;;;18.77;33.72;99392.94;16114831;19;131367;-41
2023/04/13 01:36:09;;;;;;;1.02;0.35;;;;;;;18.77;33.36;99400.41;16115620;19;129982;-43
2023/04/13 01:41:31;;;;;;;1.67;0.70;;;;;;;18.73;33.81;99433.38;16115304;19;130834;-44
2023/04/13 01:47:00;;;;;;;1.30;0.40;;;;;;;18.73;33.58;99438.09;16112243;19;130639;-43
2023/04/13 01:52:26;;;;;;;1.27;0.30;;;;;;;18.72;33.57;99462.19;16115490;19;131158;-43
2023/04/13 01:57:53;;;;;;;2.45;0.40;;;;;;;18.72;33.49;99476.03;16113083;19;130356;-44
2023/04/13 02:03:15;;;;;;;1.10;0.50;;;;;;;18.69;33.49;99484.94;16111962;19;129283;-43
2023/04/13 02:08:37;;;;;;;2.25;0.57;;;;;;;18.68;33.55;99491.59;16116022;19;129973;-42
2023/04/13 02:13:59;;;;;;;0.80;0.40;;;;;;;18.68;34.00;99487.97;16111759;19;129840;-42
2023/04/13 02:19:24;;;;;;;1.48;0.57;;;;;;;18.66;33.76;99491.03;16111103;19;130946;-42
2023/04/13 02:24:46;;;;;;;4.75;0.60;;;;;;;18.67;34.02;99503.78;16107407;19;130983;-41
2023/04/13 02:30:08;;;;;;;3.92;0.50;;;;;;;18.64;34.06;99509.88;16114118;19;130174;-44
2023/04/13 02:35:30;;;;;;;1.02;0.50;;;;;;;18.63;33.95;99518.47;16113031;19;129592;-42
2023/04/13 02:40:59;;;;;;;1.88;0.70;;;;;;;18.62;33.70;99539.78;16110809;19;129767;-44
2023/04/13 02:46:22;;;;;;;1.77;0.50;;;;;;;18.60;34.15;99542.00;16110250;19;131969;-45
2023/04/13 02:51:44;;;;;;;1.52;0.50;;;;;;;18.59;34.04;99552.28;16112127;19;129568;-48
2023/04/13 02:57:06;;;;;;;0.50;0.30;;;;;;;18.58;34.12;99563.63;16115594;19;134550;-44
2023/04/13 03:02:28;;;;;;;2.42;0.40;;;;;;;18.56;34.00;99569.44;16104709;19;129999;-43
2023/04/13 03:07:51;;;;;;;1.35;0.40;;;;;;;18.55;33.89;99569.72;16108418;19;131467;-44
2023/04/13 03:13:12;;;;;;;1.45;0.35;;;;;;;18.53;34.10;99583.03;16111789;19;129962;-42
2023/04/13 03:18:35;;;;;;;2.00;0.35;;;;;;;18.52;34.08;99595.22;16111448;19;130591;-45
2023/04/13 03:23:57;;;;;;;1.88;0.40;;;;;;;18.51;34.40;99597.16;16113243;19;132009;-43
2023/04/13 03:29:19;;;;;;;0.82;0.32;;;;;;;18.51;34.15;99610.16;16121521;19;129249;-43
2023/04/13 03:34:42;;;;;;;2.75;0.50;;;;;;;18.50;34.03;99619.56;16125824;19;134055;-43
2023/04/13 03:40:08;;;;;;;0.88;0.40;;;;;;;18.48;34.02;99638.41;16125285;19;129650;-42
2023/04/13 03:45:31;;;;;;;1.27;0.40;;;;;;;18.47;34.24;99648.66;16125137;19;129862;-43
2023/04/13 03:50:52;;;;;;;2.35;0.40;;;;;;;18.46;34.33;99661.66;16124020;19;129420;-42
2023/04/13 03:56:14;;;;;;;1.23;0.40;;;;;;;18.44;34.29;99663.06;16125850;19;129743;-43
2023/04/13 04:01:36;;;;;;;0.77;0.40;;;;;;;18.44;34.28;99672.22;16120410;19;130817;-43
2023/04/13 04:06:58;;;;;;;1.17;0.30;;;;;;;18.42;34.46;99677.19;16124877;19;130011;-42
2023/04/13 04:12:20;;;;;;;1.80;0.40;;;;;;;18.42;34.17;99688.25;16119923;19;130204;-44
2023/04/13 04:17:42;;;;;;;1.55;0.32;;;;;;;18.41;34.30;99694.91;16120724;19;135259;-42
2023/04/13 04:23:04;;;;;;;2.10;0.30;;;;;;;18.40;34.64;99701.53;16117362;19;129490;-43
2023/04/13 04:28:29;;;;;;;1.08;0.40;;;;;;;18.39;34.28;99705.41;16120169;19;130543;-42
2023/04/13 04:33:51;;;;;;;0.60;0.28;;;;;;;18.36;34.40;99719.78;16122138;19;131619;-43
2023/04/13 04:39:13;;;;;;;1.00;0.35;;;;;;;18.36;34.46;99719.78;16118498;19;131409;-42
2023/04/13 04:44:36;;;;;;;1.02;0.20;;;;;;;18.35;34.32;99723.63;16115644;19;130720;-44
2023/04/13 04:49:58;;;;;;;1.38;0.35;;;;;;;18.33;34.71;99741.63;16120691;19;130864;-42
2023/04/13 04:55:20;;;;;;;2.08;0.32;;;;;;;18.31;34.39;99741.94;16120769;19;131354;-42
2023/04/13 05:00:41;;;;;;;1.08;0.22;;;;;;;18.30;34.56;99748.56;16114279;19;131311;-45
2023/04/13 05:06:03;;;;;;;1.98;0.32;;;;;;;18.29;34.38;99757.97;16122197;19;129681;-45
2023/04/13 05:11:25;;;;;;;0.80;0.30;;;;;;;18.44;34.25;99755.28;16116848;19;131540;-42
2023/04/13 05:16:47;;;;;;;1.58;0.40;;;;;;;18.79;34.04;99755.59;16117036;19;129558;-45
2023/04/13 05:22:14;;;;;;;0.65;0.20;;;;;;;19.11;33.60;99761.97;16117127;19;130747;-43
2023/04/13 05:27:36;;;;;;;1.70;0.35;;;;;;;19.28;33.18;99767.25;16115661;19;131202;-42
2023/04/13 05:33:00;;;;;;;24.23;1.70;;;;;;;19.32;33.45;99771.94;16118515;19;131104;-42
2023/04/13 05:38:23;;;;;;;12.90;0.80;;;;;;;19.34;33.29;99783.59;16115924;19;130646;-42
2023/04/13 05:43:45;;;;;;;13.77;1.02;;;;;;;19.33;33.14;99793.03;16118822;19;129840;-45
2023/04/13 05:49:07;;;;;;;10.48;1.10;;;;;;;19.30;33.43;99804.69;16116801;19;130528;-45
2023/04/13 05:54:29;;;;;;;11.07;0.95;;;;;;;19.28;33.19;99812.47;16114423;19;130854;-41
2023/04/13 05:59:52;;;;;;;8.45;0.70;;;;;;;19.24;33.12;99816.88;16113904;19;131189;-43
2023/04/13 06:05:14;;;;;;;10.45;1.00;;;;;;;19.19;33.38;99820.47;16115441;19;131642;-43
2023/04/13 06:10:36;;;;;;;7.97;1.23;;;;;;;19.11;33.56;99837.66;16118068;19;129788;-46
2023/04/13 06:15:58;;;;;;;9.02;1.38;;;;;;;19.04;33.54;99851.78;16119633;19;129978;-44
2023/04/13 06:21:20;;;;;;;9.13;0.70;;;;;;;19.00;33.95;99860.94;16114975;19;129417;-43
2023/04/13 06:26:42;;;;;;;14.02;1.02;;;;;;;18.94;33.98;99885.03;16118753;19;131168;-41
2023/04/13 06:32:06;;;;;;;9.52;0.80;;;;;;;18.89;34.09;99887.78;16118182;19;130642;-42
2023/04/13 06:37:29;;;;;;;11.57;1.25;;;;;;;18.84;33.96;99890.53;16113194;19;130961;-47
2023/04/13 06:42:51;;;;;;;9.95;1.30;;;;;;;18.82;33.87;99903.84;16116258;19;130560;-42
2023/04/13 06:48:13;;;;;;;5.72;0.63;;;;;;;18.86;34.01;99899.41;16113064;19;130005;-41
2023/04/13 06:53:34;;;;;;;4.38;0.80;;;;;;;18.98;33.83;99902.78;16114270;19;129753;-42
2023/04/13 06:59:00;;;;;;;5.22;0.90;;;;;;;19.06;34.11;99913.34;16114431;19;129267;-42
2023/04/13 07:04:23;;;;;;;5.90;1.08;;;;;;;19.15;33.57;99919.16;16126576;19;131053;-43
2023/04/13 07:09:49;;;;;;;3.10;0.70;;;;;;;19.31;33.65;99933.09;16131208;19;129608;-44
2023/04/13 07:15:11;;;;;;;2.83;0.93;;;;;;;19.49;33.62;99931.72;16131120;19;131869;-42
2023/04/13 07:20:34;;;;;;;6.30;0.85;;;;;;;19.68;33.21;99927.28;16130155;19;129537;-43
2023/04/13 07:25:57;;;;;;;2.92;0.75;;;;;;;19.88;33.20;99947.00;16129394;19;131334;-42
2023/04/13 07:31:19;;;;;;;5.75;0.93;;;;;;;20.01;33.21;99951.97;16132833;19;129494;-43
2023/04/13 07:36:42;;;;;;;8.98;1.00;;;;;;;20.10;32.55;99966.13;16131132;19;130704;-42
2023/04/13 07:42:04;;;;;;;3.38;0.70;;;;;;;20.14;32.73;99981.13;16128921;19;129439;-42
2023/04/13 07:47:26;;;;;;;8.75;1.02;;;;;;;20.15;32.68;99988.34;16126754;19;133292;-41
2023/04/13 07:52:48;;;;;;;8.00;1.08;;;;;;;20.14;32.51;99998.63;16126427;19;129234;-45
2023/04/13 07:58:10;;;;;;;7.18;1.10;;;;;;;20.16;32.67;100008.59;16126884;19;129527;-43
2023/04/13 08:03:35;;;;;;;6.18;1.08;;;;;;;20.16;32.63;100020.56;16122589;19;130654;-42
2023/04/13 08:08:57;;;;;;;5.63;1.17;;;;;;;20.13;32.47;100026.66;16127568;19;130521;-43
2023/04/13 08:14:19;;;;;;;5.60;1.00;;;;;;;20.07;32.61;100030.53;16124692;19;129569;-46
2023/04/13 08:19:41;;;;;;;6.40;1.08;;;;;;;20.01;32.93;100048.31;16124993;19;131181;-44
2023/04/13 08:25:05;;;;;;;4.32;0.90;;;;;;;19.94;32.93;100057.72;16123036;19;129139;-43
2023/04/13 08:30:31;;;;;;;5.15;1.30;;;;;;;19.88;32.73;100056.06;16121214;19;130975;-42
2023/04/13 08:35:54;;;;;;;7.82;1.08;;;;;;;19.82;32.71;100069.09;16122621;19;129338;-43
2023/04/13 08:41:16;;;;;;;9.13;1.30;;;;;;;19.76;32.83;100077.69;16121862;19;129674;-40
2023/04/13 08:46:44;;;;;;;5.25;1.10;;;;;;;19.68;32.84;100073.50;16123302;19;129502;-44
2023/04/13 08:52:08;;;;;;;4.30;0.98;;;;;;;19.61;33.36;100090.41;16124161;19;133920;-42
2023/04/13 08:57:31;;;;;;;6.88;1.23;;;;;;;19.57;33.39;100085.69;16118586;19;130218;-41
2023/04/13 09:03:01;;;;;;;2.90;0.90;;;;;;;19.53;33.53;100107.59;16126232;19;129092;-42
2023/04/13 09:08:33;;;;;;;3.47;1.00;;;;;;;19.49;33.15;100106.47;16125173;19;129735;-45
2023/04/13 09:13:55;;;;;;;6.03;1.27;;;;;;;19.48;33.54;100121.44;16124772;19;129529;-43
2023/04/13 09:19:31;;;;;;;4.00;1.05;;;;;;;19.45;33.57;100110.88;16121997;19;131013;-44
2023/04/13 09:24:53;;;;;;;4.60;1.23;;;;;;;19.38;33.69;100122.25;16121242;19;129239;-41
2023/04/13 09:30:19;;;;;;;3.75;1.02;;;;;;;19.34;33.78;100133.03;16119771;19;131029;-39
2023/04/13 09:35:40;;;;;;;;;;;;;;;19.29;34.22;100144.13;16124750;19;131262;-42
2023/04/13 09:41:02;;;;;;;19.15;1.60;;;;;;;19.47;34.44;100153.91;16122647;19;129769;-43
2023/04/13 09:46:25;;;;;;;11.20;1.60;;;;;;;19.76;33.74;100163.72;16119761;19;131548;-44
2023/04/13 09:51:47;;;;;;;9.57;1.17;;;;;;;20.05;33.72;100163.28;16121501;19;129479;-42
2023/04/13 09:57:09;;;;;;;14.45;1.80;;;;;;;20.32;33.54;100174.16;16119837;19;130306;-41
2023/04/13 10:02:32;;;;;;;8.55;1.55;;;;;;;20.53;34.17;100180.56;16119785;19;130677;-41
2023/04/13 10:07:55;;;;;;;11.60;1.42;;;;;;;20.70;34.18;100179.44;16117790;19;130270;-43
2023/04/13 10:13:25;;;;;;;11.63;2.00;;;;;;;20.77;34.47;100174.47;16117931;19;129210;-41
2023/04/13 10:19:08;;;;;;;11.98;1.50;;;;;;;20.84;33.69;100186.13;16116742;19;129479;-44
2023/04/13 10:24:30;;;;;;;11.00;1.52;;;;;;;20.88;34.44;100197.50;16113717;19;130047;-42
2023/04/13 10:29:53;;;;;;;17.35;2.42;;;;;;;20.88;34.85;100198.38;16115278;19;130444;-45
2023/04/13 10:35:15;;;;;;;12.65;2.15;;;;;;;20.86;35.73;100211.69;16115612;19;129611;-46
2023/04/13 10:40:44;;;;;;;9.32;2.20;;;;;;;20.86;36.56;100227.56;16116831;19;129547;-44
2023/04/13 10:46:13;;;;;;;12.65;2.58;;;;;;;20.84;37.29;100233.38;16116541;19;135007;-42
2023/04/13 10:51:40;;;;;;;16.77;2.13;;;;;;;20.81;37.67;100239.50;16114827;19;129554;-47
2023/04/13 10:57:05;;;;;;;9.95;1.65;;;;;;;20.79;38.07;100243.66;16115413;19;129602;-41
2023/04/13 11:02:30;;;;;;;8.13;1.47;;;;;;;20.73;38.37;100251.16;16110650;19;129960;-41
2023/04/13 11:07:53;;;;;;;12.18;1.77;;;;;;;20.68;38.35;100260.31;16113403;19;130116;-41
2023/04/13 11:13:16;;;;;;;6.68;1.58;;;;;;;20.62;38.50;100264.19;16115466;19;129087;-42
2023/04/13 11:18:38;;;;;;;8.68;1.50;;;;;;;20.54;39.19;100268.38;16114898;19;129616;-41
2023/04/13 11:24:03;;;;;;;5.25;1.70;;;;;;;20.50;39.21;100267.25;16113564;19;129626;-42
2023/04/13 11:29:26;;;;;;;6.95;1.40;;;;;;;20.43;39.60;100269.47;16114018;19;129426;-41
2023/04/13 11:34:49;;;;;;;6.50;1.60;;;;;;;20.36;39.83;100268.88;16117056;19;129928;-41
2023/04/13 11:40:16;;;;;;;9.20;1.40;;;;;;;20.28;40.02;100273.88;16119282;19;129586;-44
2023/04/13 11:45:38;;;;;;;7.13;1.80;;;;;;;20.23;40.03;100265.50;16121001;19;129733;-42
2023/04/13 11:51:00;;;;;;;6.72;1.15;;;;;;;20.18;40.61;100284.94;16131196;19;129418;-44
2023/04/13 11:56:22;;;;;;;6.03;1.10;;;;;;;20.13;40.44;100282.16;16136238;19;129567;-43
2023/04/13 12:01:48;;;;;;;3.45;1.30;;;;;;;20.08;40.54;100282.13;16130870;19;130850;-42
2023/04/13 12:07:23;;;;;;;4.20;0.88;;;;;;;20.05;40.71;100291.00;16132167;19;130962;-51
2023/04/13 12:12:54;;;;;;;4.10;1.10;;;;;;;20.01;40.48;100287.09;16128273;19;134957;-49
2023/04/13 12:18:20;;;;;;;3.85;1.00;;;;;;;19.96;40.46;100287.88;16125078;19;129666;-45
2023/04/13 12:23:57;;;;;;;3.47;0.70;;;;;;;19.93;40.32;100289.28;16125783;19;129394;-49
2023/04/13 12:29:21;;;;;;;2.83;0.90;;;;;;;19.86;40.11;100304.50;16126120;19;129525;-49
2023/04/13 12:34:43;;;;;;;5.15;1.20;;;;;;;19.84;40.13;100301.97;16126578;19;129566;-47
2023/04/13 12:40:11;;;;;;;5.28;1.00;;;;;;;19.83;40.85;100292.81;16125892;19;129998;-50
2023/04/13 12:45:33;;;;;;;3.35;0.88;;;;;;;19.82;40.63;100296.69;16116146;19;131274;-43
2023/04/13 12:50:55;;;;;;;9.82;1.13;;;;;;;19.80;40.89;100304.47;16123709;19;129981;-51
2023/04/13 12:56:17;;;;;;;5.90;1.17;;;;;;;19.79;41.28;100304.75;16128556;19;129443;-48
2023/04/13 13:01:39;;;;;;;3.17;0.82;;;;;;;19.81;41.25;100314.47;16120906;19;129481;-48
2023/04/13 13:07:01;;;;;;;7.20;1.10;;;;;;;19.99;40.23;100327.06;16122406;19;129469;-51
2023/04/13 13:12:28;;;;;;;4.45;0.95;;;;;;;19.99;39.74;100332.63;16123669;19;130328;-50
2023/04/13 13:17:51;;;;;;;3.97;0.60;;;;;;;20.04;39.64;100331.81;16122492;19;130060;-42
2023/04/13 13:23:13;;;;;;;5.68;0.85;;;;;;;20.12;39.12;100330.47;16117899;19;129614;-48
2023/04/13 13:28:35;;;;;;;4.53;1.17;;;;;;;20.22;38.79;100324.94;16122949;19;129947;-41
2023/04/13 13:33:57;;;;;;;4.63;1.00;;;;;;;20.33;38.38;100336.09;16119004;19;131117;-43
2023/04/13 13:39:21;;;;;;;4.78;0.85;;;;;;;20.40;37.70;100336.69;16117312;19;130940;-43
2023/04/13 13:44:43;;;;;;;1.97;0.60;;;;;;;20.47;37.60;100347.53;16125238;19;129039;-43
2023/04/13 13:50:06;;;;;;;3.22;0.80;;;;;;;20.51;37.02;100346.72;16119293;19;129912;-47
2023/04/13 13:55:29;;;;;;;3.10;0.90;;;;;;;20.53;36.51;100355.63;16118655;19;130031;-42
2023/04/13 14:00:51;;;;;;;3.35;0.80;;;;;;;20.51;36.42;100348.66;16121325;19;130066;-44
2023/04/13 14:06:13;;;;;;;4.47;0.98;;;;;;;20.49;36.39;100362.81;16117176;19;131163;-43
2023/04/13 14:11:35;;;;;;;3.28;0.80;;;;;;;20.45;36.28;100356.13;16117598;19;129378;-45
2023/04/13 14:16:57;;;;;;;2.22;0.70;;;;;;;20.41;36.98;100363.34;16117025;19;129755;-46
2023/04/13 14:22:20;;;;;;;4.15;0.90;;;;;;;20.37;36.77;100359.44;16116952;19;129278;-44
2023/04/13 14:27:42;;;;;;;2.17;0.60;;;;;;;20.33;37.44;100361.09;16117550;19;129775;-43
2023/04/13 14:33:04;;;;;;;3.13;0.70;;;;;;;20.27;37.49;100355.53;16116564;19;130084;-44
2023/04/13 14:38:27;;;;;;;5.10;0.80;;;;;;;20.21;38.01;100367.72;16113339;19;130242;-43
2023/04/13 14:43:49;;;;;;;3.20;0.80;;;;;;;20.18;38.15;100354.38;16113934;19;129718;-43
2023/04/13 14:49:11;;;;;;;2.40;0.70;;;;;;;20.15;38.51;100363.25;16111199;19;130158;-44
2023/04/13 14:54:33;;;;;;;3.25;0.77;;;;;;;20.12;38.82;100381.25;16109708;19;130994;-44
2023/04/13 14:59:55;;;;;;;2.15;0.55;;;;;;;20.10;38.86;100372.41;16114479;19;129248;-44
2023/04/13 15:05:17;;;;;;;5.60;0.95;;;;;;;20.08;38.91;100376.53;16116305;19;129359;-44
2023/04/13 15:10:40;;;;;;;3.97;0.90;;;;;;;20.04;39.06;100390.13;16115980;19;128970;-43
2023/04/13 15:16:02;;;;;;;4.63;0.90;;;;;;;20.03;39.14;100390.41;16116469;19;130985;-41
2023/04/13 15:21:26;;;;;;;2.17;0.77;;;;;;;20.02;39.10;100386.78;16109701;19;130296;-43
2023/04/13 15:26:48;;;;;;;4.20;0.70;;;;;;;19.98;39.55;100380.91;16122958;19;130788;-47
2023/04/13 15:32:10;;;;;;;2.10;0.47;;;;;;;19.96;39.72;100394.19;16128336;19;130351;-45
2023/04/13 15:37:32;;;;;;;3.33;0.80;;;;;;;19.93;39.41;100392.00;16123566;19;129612;-43
2023/04/13 15:42:54;;;;;;;2.05;0.55;;;;;;;19.91;39.53;100391.41;16124741;19;129467;-46
2023/04/13 15:48:17;;;;;;;6.40;1.20;;;;;;;19.88;39.60;100394.72;16120969;19;130912;-46
2023/04/13 15:53:39;;;;;;;9.32;1.20;;;;;;;19.84;39.75;100399.13;16125450;19;129829;-44
2023/04/13 15:59:01;;;;;;;5.25;0.80;;;;;;;19.81;39.46;100406.06;16121625;19;136265;-42
2023/04/13 16:04:23;;;;;;;4.63;0.90;;;;;;;19.79;39.92;100413.81;16123501;19;129838;-45
2023/04/13 16:09:47;;;;;;;4.47;1.10;;;;;;;19.75;40.01;100421.00;16126275;19;130677;-42
2023/04/13 16:15:10;;;;;;;3.75;0.90;;;;;;;19.73;39.81;100431.53;16122459;19;129983;-45
2023/04/13 16:20:32;;;;;;;5.22;1.10;;;;;;;19.73;40.25;100428.75;16117436;19;130013;-48
2023/04/13 16:25:54;;;;;;;8.13;2.17;;;;;;;19.75;40.28;100423.78;16121951;19;130793;-45
2023/04/13 16:31:16;;;;;;;11.65;2.80;;;;;;;19.79;40.48;100437.97;16122445;19;130289;-43
2023/04/13 16:36:38;;;;;;;10.55;2.90;;;;;;;19.84;40.35;100451.88;16121445;19;130919;-44
2023/04/13 16:42:00;;;;;;;12.93;4.00;;;;;;;19.90;40.43;100448.03;16120224;19;129938;-42
2023/04/13 16:47:23;;;;;;;13.25;3.75;;;;;;;19.92;40.46;100454.16;16118941;19;130179;-45
2023/04/13 16:52:45;;;;;;;11.40;4.10;;;;;;;19.95;40.26;100450.84;16119444;19;130946;-44
2023/04/13 16:58:08;;;;;;;13.05;3.80;;;;;;;19.93;40.14;100461.41;16121967;19;129537;-43
2023/04/13 17:03:30;;;;;;;12.88;4.47;;;;;;;19.88;40.42;100460.53;16122001;19;129742;-46
2023/04/13 17:08:53;;;;;;;14.38;4.53;;;;;;;19.83;40.47;100477.94;16119362;19;129293;-44
2023/04/13 17:14:14;;;;;;;13.20;4.05;;;;;;;19.78;40.19;100492.63;16117394;19;129535;-45
2023/04/13 17:19:36;;;;;;;12.77;4.20;;;;;;;19.74;40.52;100490.66;16114718;19;129896;-44
2023/04/13 17:24:58;;;;;;;8.73;3.92;;;;;;;19.68;40.24;100496.16;16119166;19;131215;-42
2023/04/13 17:30:21;;;;;;;11.10;4.18;;;;;;;19.64;40.54;100508.03;16116232;19;130581;-45
2023/04/13 17:35:43;;;;;;;18.42;4.80;;;;;;;19.63;40.44;100498.88;16116663;19;130447;-42
2023/04/13 17:41:05;;;;;;;17.77;4.10;;;;;;;19.65;40.51;100516.13;16015168;19;135450;-44
2023/04/13 17:46:28;;;;;;;13.07;3.80;;;;;;;19.82;40.33;100526.22;16113540;19;131372;-46
2023/04/13 17:51:50;;;;;;;17.95;3.63;;;;;;;20.13;40.38;100526.53;16113177;19;130315;-46
2023/04/13 17:57:12;;;;;;;13.38;3.70;;;;;;;20.48;40.13;100525.09;16116160;19;130016;-47
2023/04/13 18:02:34;;;;;;;10.93;3.08;;;;;;;20.73;39.42;100535.53;16113785;19;131296;-44
2023/04/13 18:07:57;;;;;;;26.13;3.50;;;;;;;20.90;39.46;100546.47;16114467;19;129371;-44
2023/04/13 18:13:19;;;;;;;15.68;3.75;;;;;;;21.08;39.32;100551.81;16114617;19;130577;-45
2023/04/13 18:18:41;;;;;;;14.50;3.20;;;;;;;21.25;39.70;100568.28;16112134;19;133170;-43
2023/04/13 18:24:04;;;;;;;17.88;3.05;;;;;;;21.40;39.67;100570.28;16112413;19;130948;-45
2023/04/13 18:29:26;;;;;;;17.92;3.30;;;;;;;21.56;39.42;100576.75;16116232;19;131113;-45
2023/04/13 18:34:48;;;;;;;11.40;2.63;;;;;;;21.70;39.01;100583.47;16115653;19;129825;-45
2023/04/13 18:40:11;;;;;;;12.77;2.92;;;;;;;21.74;39.12;100598.50;16111540;19;130612;-47
2023/04/13 18:45:33;;;;;;;12.77;2.42;;;;;;;21.77;39.13;100603.53;16112336;19;129469;-45
2023/04/13 18:50:55;;;;;;;12.23;2.72;;;;;;;21.74;39.44;100606.88;16111684;19;129572;-43
2023/04/13 18:56:17;;;;;;;10.30;2.70;;;;;;;21.68;39.51;100627.44;16110934;19;130111;-46
2023/04/13 19:01:39;;;;;;;8.13;2.60;;;;;;;21.61;39.67;100633.28;16128550;19;130174;-44
2023/04/13 19:07:01;;;;;;;11.40;3.20;;;;;;;21.53;39.70;100636.59;16125956;19;129731;-42
2023/04/13 19:12:23;;;;;;;7.03;1.83;;;;;;;21.48;39.98;100645.72;16124829;19;129427;-42
2023/04/13 19:17:45;;;;;;;8.38;2.35;;;;;;;21.39;40.28;100658.50;16130532;19;130806;-43
2023/04/13 19:23:07;;;;;;;6.82;1.75;;;;;;;21.30;40.40;100654.53;16128953;19;129430;-43
2023/04/13 19:28:29;;;;;;;6.13;1.67;;;;;;;21.15;40.02;100672.88;16127953;19;129687;-45
2023/04/13 19:33:52;;;;;;;27.55;3.40;;;;;;;21.05;39.86;100678.34;16130969;19;130845;-44
2023/04/13 19:39:14;;;;;;;28.55;3.40;;;;;;;20.94;40.04;100676.59;16125307;19;130223;-41
2023/04/13 19:44:36;;;;;;;23.33;2.90;;;;;;;20.86;40.08;100680.75;16123050;19;129895;-41
2023/04/13 19:49:58;;;;;;;24.67;2.90;;;;;;;20.82;40.40;100694.31;16125011;19;130167;-46
2023/04/13 19:55:20;;;;;;;21.73;2.90;;;;;;;20.79;40.79;100702.38;16124653;19;130235;-43
2023/04/13 20:00:46;;;;;;;26.75;3.05;;;;;;;20.72;40.91;100703.41;16119497;19;129306;-44
2023/04/13 20:06:08;;;;;;;25.17;2.72;;;;;;;20.68;41.21;100713.38;16124005;19;129826;-43
2023/04/13 20:11:30;;;;;;;15.48;1.77;;;;;;;20.63;41.16;100718.88;16124418;19;129966;-42
2023/04/13 20:16:52;;;;;;;19.52;2.50;;;;;;;20.60;41.08;100713.88;16124521;19;129580;-46
2023/04/13 20:22:17;;;;;;;34.42;5.00;;;;;;;20.56;41.36;100721.88;16120104;19;131091;-42
2023/04/13 20:27:40;;;;;;;24.70;3.20;;;;;;;20.54;41.92;100726.91;16118521;19;130676;-42
2023/04/13 20:33:02;;;;;;;19.77;2.50;;;;;;;20.58;41.86;100730.81;16117575;19;129661;-42
2023/04/13 20:38:28;;;;;;;26.57;3.57;;;;;;;20.53;41.54;100725.22;16119867;19;129584;-44
2023/04/13 20:43:51;;;;;;;20.15;2.70;;;;;;;20.47;41.21;100731.00;16123336;19;130282;-43
2023/04/13 20:49:13;;;;;;;27.55;3.13;;;;;;;20.36;41.58;100725.34;16110682;19;130299;-44
2023/04/13 20:54:35;;;;;;;21.25;3.50;;;;;;;20.32;41.05;100728.88;16119813;19;129594;-42
2023/04/13 20:59:57;;;;;;;21.77;2.53;;;;;;;20.25;41.18;100724.41;16119665;19;130635;-42
2023/04/13 21:05:21;;;;;;;17.45;2.00;;;;;;;20.19;40.86;100725.44;16115635;19;129690;-44
2023/04/13 21:10:43;;;;;;;14.98;1.80;;;;;;;20.14;41.10;100725.38;16115028;19;129725;-43
2023/04/13 21:16:05;;;;;;;6.20;1.52;;;;;;;20.10;41.23;100733.41;16118233;19;130003;-48
2023/04/13 21:21:27;;;;;;;16.30;1.50;;;;;;;20.06;41.04;100736.97;16113545;19;129880;-43
2023/04/13 21:26:49;;;;;;;9.23;1.67;;;;;;;19.99;40.94;100743.56;16116759;19;130520;-43
2023/04/13 21:32:12;;;;;;;14.52;1.75;;;;;;;19.96;40.99;100746.00;16117917;19;131152;-44
2023/04/13 21:37:34;;;;;;;15.50;1.73;;;;;;;19.92;41.04;100747.59;16116896;19;130432;-43
2023/04/13 21:42:56;;;;;;;8.25;1.67;;;;;;;19.88;41.02;100741.72;16118684;19;130904;-42
2023/04/13 21:48:18;;;;;;;8.38;1.45;;;;;;;19.84;41.19;100735.88;16114318;19;130143;-43
2023/04/13 21:53:40;;;;;;;7.00;1.40;;;;;;;19.81;41.19;100735.56;16114039;19;130326;-43
2023/04/13 21:59:02;;;;;;;6.90;1.65;;;;;;;19.76;41.05;100736.31;16115458;19;130668;-46
2023/04/13 22:04:23;;;;;;;7.25;1.58;;;;;;;19.72;41.08;100743.50;16118190;19;129690;-42
2023/04/13 22:09:46;;;;;;;11.95;1.63;;;;;;;19.69;41.20;100747.59;16112318;19;131382;-43
2023/04/13 22:15:08;;;;;;;3.92;0.98;;;;;;;19.64;41.50;100742.00;16118830;19;130413;-45
2023/04/13 22:20:30;;;;;;;4.85;1.20;;;;;;;19.61;41.44;100748.06;16115020;19;129271;-43
2023/04/13 22:26:00;;;;;;;3.40;1.08;;;;;;;19.58;41.19;100742.19;16118082;19;130555;-42
2023/04/13 22:31:22;;;;;;;8.10;1.45;;;;;;;19.55;41.01;100742.69;16113998;19;129308;-44
2023/04/13 22:36:44;;;;;;;3.72;1.10;;;;;;;19.51;40.96;100740.44;16113066;19;129090;-45
2023/04/13 22:42:06;;;;;;;3.35;0.90;;;;;;;19.48;40.95;100742.88;16111890;19;130256;-42
2023/04/13 22:47:27;;;;;;;3.83;1.02;;;;;;;19.46;41.26;100751.47;16113482;19;130660;-42
2023/04/13 22:52:52;;;;;;;4.60;1.08;;;;;;;19.43;40.98;100756.69;16114533;19;130336;-44
2023/04/13 22:58:13;;;;;;;6.95;0.85;;;;;;;19.41;41.36;100753.34;16110434;19;129878;-43
2023/04/13 23:03:35;;;;;;;4.68;0.98;;;;;;;19.37;41.44;100751.06;16112049;19;131919;-42
2023/04/13 23:08:57;;;;;;;3.13;0.88;;;;;;;19.36;41.16;100752.16;16113360;19;131177;-43
2023/04/13 23:14:21;;;;;;;3.50;1.00;;;;;;;19.34;41.35;100753.53;16108355;19;129680;-42
2023/04/13 23:19:43;;;;;;;3.72;0.80;;;;;;;19.31;40.93;100751.25;16107790;19;130091;-44
2023/04/13 23:25:05;;;;;;;7.00;0.73;;;;;;;19.29;41.26;100762.59;16108913;19;129311;-42
2023/04/13 23:30:27;;;;;;;3.97;0.85;;;;;;;19.26;41.16;100759.50;16110888;19;131395;-42
2023/04/13 23:35:51;;;;;;;3.42;0.55;;;;;;;19.23;41.00;100766.38;16108130;19;130535;-44
2023/04/13 23:41:13;;;;;;;3.80;0.87;;;;;;;19.21;41.30;100777.75;16108275;19;130350;-43
2023/04/13 23:46:36;;;;;;;5.00;0.65;;;;;;;19.19;41.11;100770.75;16118270;19;130602;-43
2023/04/13 23:51:57;;;;;;;3.80;0.63;;;;;;;19.17;41.18;100778.47;16125859;19;129738;-43
2023/04/13 23:57:20;;;;;;;1.90;0.47;;;;;;;19.15;41.36;100777.88;16123189;19;130641;-42
